»·PEaware :: BAW11M EGLL-KSFO

BAW11M :: EGLL-KSFO

FLIGHT INFORMATION

Flight Status: Arrived
Operator:
British Airways
More flights by this operator :: More flights under this callsign
Pilot: Henderson P. (1210)
Aircraft: BOEING 747
(B747)
More flights by this aircraft type
Origin: EGLL Heathrow
United Kingdom
Destination: KSFO San Francisco Intl
United States
More flights between these airports :: More routes between these airports
Route: +UMLAT T418 WELIN T420 TNT UL28 RODOL UM65 TENSO/N0484F320 L603 REMSI DCT GOMUP/M085F350 DCT 59N020W 61N030W 63N040W 63N050W DCT KETLA/M084F360 N880A FEDDY/N0481F360 DCT MIBNA DCT YDN/N0482F380 DCT ISN DCT KU87Q DCT KU75M DCT FMG DCT LEGGS BDEGA3
File this flight plan on PilotEdge
Remarks:
Altitude:
(Current/Filed)
30,000ft
Speed:
(Current/Filed)
478kts
Departed: 20-Oct-18 02:50 AM
Arrived: 20-Oct-18 01:26 PM
Distance/Time
Traveled:
4650nm/10:35
Distance/Time
To Go:
Arrived

Flight Plot

Page will automatically refresh every two minutes.

Flight plan parsing failed; only flown route is shown


Map Options




Map Legend


Flown Route
Filed Route
Departure Airport
Arrival Airport
Navaid (VOR, NDB)
Fix

Horizontal Profiles

Position Reports

Time Latitude Longitude Heading Altitude Ground
Speed
20-Oct-18 01:35 51.473082 -0.480321 269 96ft 0kts
20-Oct-18 01:36 51.473082 -0.480321 269 96ft 0kts
20-Oct-18 01:37 51.473082 -0.480321 269 96ft 0kts
20-Oct-18 01:38 51.473082 -0.480321 269 96ft 0kts
20-Oct-18 01:39 51.473082 -0.480321 269 96ft 0kts
20-Oct-18 01:40 51.473082 -0.480321 269 96ft 0kts
20-Oct-18 01:41 51.473082 -0.480321 269 96ft 0kts
20-Oct-18 01:42 51.473082 -0.480321 269 96ft 0kts
20-Oct-18 01:43 51.473082 -0.480321 269 96ft 0kts
20-Oct-18 01:44 51.473082 -0.480321 269 96ft 0kts
20-Oct-18 01:45 51.473082 -0.480321 269 96ft 0kts
20-Oct-18 01:46 51.473082 -0.480321 269 96ft 0kts
20-Oct-18 01:47 51.473082 -0.480321 269 96ft 0kts
20-Oct-18 01:48 51.473082 -0.480321 269 96ft 0kts
20-Oct-18 01:49 51.473082 -0.480321 269 96ft 0kts
20-Oct-18 01:50 51.473082 -0.480321 269 96ft 0kts
20-Oct-18 01:51 51.473082 -0.480321 269 96ft 0kts
20-Oct-18 01:52 51.473082 -0.480321 269 96ft 0kts
20-Oct-18 01:53 51.473082 -0.480321 269 96ft 0kts
20-Oct-18 01:54 51.473082 -0.480321 269 96ft 0kts
20-Oct-18 01:55 51.473082 -0.480321 269 96ft 0kts
20-Oct-18 01:56 51.473082 -0.480321 269 96ft 0kts
20-Oct-18 01:57 51.473082 -0.480321 269 96ft 0kts
20-Oct-18 01:58 51.473082 -0.480321 269 96ft 0kts
20-Oct-18 01:59 51.473082 -0.480321 269 96ft 0kts
20-Oct-18 02:00 51.473082 -0.480321 269 96ft 0kts
20-Oct-18 02:01 51.473082 -0.480321 269 96ft 0kts
20-Oct-18 02:02 51.473082 -0.480321 269 96ft 0kts
20-Oct-18 02:03 51.473082 -0.480321 269 96ft 0kts
20-Oct-18 02:04 51.473082 -0.480321 269 96ft 0kts
20-Oct-18 02:05 51.473082 -0.480321 269 96ft 0kts
20-Oct-18 02:06 51.473082 -0.480321 269 96ft 0kts
20-Oct-18 02:07 51.473082 -0.480321 269 96ft 0kts
20-Oct-18 02:08 51.473082 -0.480321 269 96ft 0kts
20-Oct-18 02:09 51.473082 -0.480321 269 96ft 0kts
20-Oct-18 02:10 51.473082 -0.480321 269 96ft 0kts
20-Oct-18 02:11 51.473082 -0.480321 269 96ft 0kts
20-Oct-18 02:12 51.473082 -0.480321 269 96ft 0kts
20-Oct-18 02:13 51.473082 -0.480321 269 96ft 0kts
20-Oct-18 02:14 51.473082 -0.480321 269 96ft 0kts
20-Oct-18 02:15 51.473082 -0.480321 269 96ft 0kts
20-Oct-18 02:16 51.473082 -0.480321 269 96ft 0kts
20-Oct-18 02:17 51.473082 -0.480321 269 96ft 0kts
20-Oct-18 02:18 51.473082 -0.480321 269 96ft 0kts
20-Oct-18 02:19 51.473082 -0.480321 269 96ft 0kts
20-Oct-18 02:20 51.473082 -0.480321 269 96ft 0kts
20-Oct-18 02:21 51.473082 -0.480321 269 96ft 0kts
20-Oct-18 02:22 51.473082 -0.480321 269 96ft 0kts
20-Oct-18 02:23 51.473082 -0.480321 269 96ft 0kts
20-Oct-18 02:24 51.473082 -0.480321 269 96ft 0kts
20-Oct-18 02:25 51.473082 -0.480321 269 95ft 0kts
20-Oct-18 02:26 51.473082 -0.480321 269 95ft 0kts
20-Oct-18 02:27 51.473082 -0.480321 269 95ft 0kts
20-Oct-18 02:28 51.473082 -0.480321 269 95ft 0kts
20-Oct-18 02:29 51.473082 -0.480321 269 95ft 0kts
20-Oct-18 02:30 51.473082 -0.480321 269 95ft 0kts
20-Oct-18 02:31 51.473082 -0.480321 269 95ft 0kts
20-Oct-18 02:32 51.473084 -0.480006 266 95ft 2kts
20-Oct-18 02:33 51.473230 -0.479035 233 95ft 2kts
20-Oct-18 02:34 51.473705 -0.478757 178 95ft 2kts
20-Oct-18 02:35 51.473737 -0.478759 178 95ft 0kts
20-Oct-18 02:36 51.473737 -0.478759 178 95ft 0kts
20-Oct-18 02:37 51.472739 -0.478730 180 95ft 9kts
20-Oct-18 02:38 51.470223 -0.478712 179 95ft 8kts
20-Oct-18 02:39 51.468121 -0.478713 179 95ft 6kts
20-Oct-18 02:40 51.466560 -0.478058 92 95ft 9kts
20-Oct-18 02:41 51.466552 -0.472560 89 95ft 11kts
20-Oct-18 02:42 51.467260 -0.468490 36 95ft 9kts
20-Oct-18 02:43 51.467482 -0.464610 90 95ft 8kts
20-Oct-18 02:44 51.467463 -0.461297 88 95ft 6kts
20-Oct-18 02:45 51.467487 -0.458418 89 95ft 7kts
20-Oct-18 02:46 51.467506 -0.450928 89 95ft 16kts
20-Oct-18 02:47 51.467529 -0.444349 89 95ft 12kts
20-Oct-18 02:48 51.467713 -0.439012 90 95ft 11kts
20-Oct-18 02:49 51.467503 -0.434629 148 95ft 9kts
20-Oct-18 02:50 51.465816 -0.434350 179 95ft 4kts
20-Oct-18 02:51 51.464954 -0.435033 269 95ft 3kts
20-Oct-18 02:52 51.464879 -0.455514 269 96ft 136kts
20-Oct-18 02:53 51.470460 -0.530246 291 1468ft 181kts
20-Oct-18 02:54 51.496668 -0.608020 296 2742ft 201kts
20-Oct-18 02:55 51.529889 -0.677416 338 4220ft 208kts
20-Oct-18 02:56 51.596492 -0.686238 357 4813ft 272kts
20-Oct-18 02:57 51.675336 -0.694531 354 7116ft 291kts
20-Oct-18 02:58 51.757529 -0.703675 354 9495ft 303kts
20-Oct-18 02:59 51.844726 -0.713498 353 11088ft 340kts
20-Oct-18 03:00 51.949242 -0.725349 353 11762ft 407kts
20-Oct-18 03:01 52.063018 -0.753788 340 13976ft 418kts
20-Oct-18 03:02 52.175032 -0.814301 340 16141ft 429kts
20-Oct-18 03:03 52.286090 -0.888191 328 18090ft 436kts
20-Oct-18 03:04 52.390400 -0.994365 328 19812ft 445kts
20-Oct-18 03:05 52.497121 -1.101527 328 21356ft 454kts
20-Oct-18 03:06 52.606112 -1.211329 329 22808ft 463kts
20-Oct-18 03:07 52.716962 -1.323821 329 24131ft 471kts
20-Oct-18 03:08 52.828397 -1.437019 329 25921ft 463kts
20-Oct-18 03:09 52.936310 -1.548037 329 27719ft 453kts
20-Oct-18 03:10 53.041975 -1.657479 329 29427ft 441kts
20-Oct-18 03:11 53.146629 -1.766065 328 30231ft 447kts
20-Oct-18 03:12 53.250826 -1.874664 330 31490ft 439kts
20-Oct-18 03:13 53.356324 -1.973476 331 32496ft 433kts
20-Oct-18 03:14 53.461059 -2.073233 330 32484ft 433kts
20-Oct-18 03:15 53.565207 -2.173583 328 32469ft 432kts
20-Oct-18 03:16 53.631906 -2.340607 296 32454ft 442kts
20-Oct-18 03:17 53.668208 -2.503019 294 32427ft 446kts
20-Oct-18 03:18 53.719220 -2.732086 294 32371ft 446kts
20-Oct-18 03:19 53.756488 -2.894475 295 32350ft 445kts
20-Oct-18 03:20 53.800763 -3.089824 294 32464ft 445kts
20-Oct-18 03:21 53.850758 -3.318780 293 32464ft 443kts
20-Oct-18 03:22 53.886092 -3.481734 293 32461ft 442kts
20-Oct-18 03:23 53.928637 -3.677411 293 32457ft 440kts
20-Oct-18 03:24 53.981913 -3.860848 310 32449ft 435kts
20-Oct-18 03:25 54.063165 -4.012124 313 32443ft 433kts
20-Oct-18 03:26 54.145601 -4.161995 313 32435ft 433kts
20-Oct-18 03:27 54.228182 -4.312011 313 32435ft 433kts
20-Oct-18 03:28 54.310507 -4.461581 313 32435ft 433kts
20-Oct-18 03:29 54.392546 -4.612681 312 32431ft 431kts
20-Oct-18 03:30 54.474086 -4.764036 312 32425ft 432kts
20-Oct-18 03:31 54.555610 -4.916361 311 32419ft 432kts
20-Oct-18 03:32 54.636686 -5.068824 311 32407ft 432kts
20-Oct-18 03:33 54.717938 -5.222592 311 32400ft 432kts
20-Oct-18 03:34 54.798625 -5.376277 310 32398ft 432kts
20-Oct-18 03:35 54.879382 -5.531080 310 32395ft 432kts
20-Oct-18 03:36 54.960035 -5.686686 310 32389ft 432kts
20-Oct-18 03:37 55.040219 -5.842391 310 32376ft 431kts
20-Oct-18 03:38 55.120125 -5.998567 309 32374ft 430kts
20-Oct-18 03:39 55.199791 -6.155283 308 32367ft 431kts
20-Oct-18 03:40 55.279196 -6.312526 308 32355ft 430kts
20-Oct-18 03:41 55.358463 -6.470519 308 32351ft 431kts
20-Oct-18 03:42 55.437541 -6.629176 308 32365ft 431kts
20-Oct-18 03:43 55.516355 -6.788353 307 33858ft 426kts
20-Oct-18 03:44 55.594083 -6.946370 307 34962ft 427kts
20-Oct-18 03:45 55.672016 -7.105858 307 35347ft 428kts
20-Oct-18 03:46 55.749820 -7.266142 307 35301ft 428kts
20-Oct-18 03:47 55.827219 -7.426660 306 35302ft 427kts
20-Oct-18 03:48 55.904369 -7.587740 306 35301ft 427kts
20-Oct-18 03:49 55.981190 -7.749207 305 35295ft 426kts
20-Oct-18 03:50 56.057545 -7.910778 305 35292ft 426kts
20-Oct-18 03:51 56.133889 -8.073420 305 35291ft 425kts
20-Oct-18 03:52 56.209871 -8.236385 305 35290ft 426kts
20-Oct-18 03:53 56.285404 -8.399495 304 35286ft 426kts
20-Oct-18 03:54 56.361014 -8.563884 304 35259ft 426kts
20-Oct-18 03:55 56.436641 -8.729442 303 35252ft 426kts
20-Oct-18 03:56 56.511805 -8.895124 303 35240ft 427kts
20-Oct-18 03:57 56.587058 -9.062163 303 35232ft 427kts
20-Oct-18 03:58 56.661892 -9.229425 302 35228ft 427kts
20-Oct-18 03:59 56.736716 -9.397837 302 35226ft 428kts
20-Oct-18 04:00 56.811463 -9.566510 303 35214ft 428kts
20-Oct-18 04:01 56.886157 -9.736446 301 35207ft 428kts
20-Oct-18 04:02 56.959964 -9.907169 301 35205ft 427kts
20-Oct-18 04:03 57.023502 -10.088176 289 35203ft 420kts
20-Oct-18 04:04 57.070867 -10.283238 288 35203ft 417kts
20-Oct-18 04:05 57.118063 -10.477871 288 35202ft 417kts
20-Oct-18 04:06 57.166304 -10.672706 289 35200ft 418kts
20-Oct-18 04:07 57.214691 -10.868078 288 35198ft 418kts
20-Oct-18 04:08 57.262205 -11.064079 287 35197ft 418kts
20-Oct-18 04:09 57.309288 -11.260577 287 35194ft 418kts
20-Oct-18 04:10 57.356095 -11.457818 287 35193ft 419kts
20-Oct-18 04:11 57.402686 -11.655983 286 35190ft 419kts
20-Oct-18 04:12 57.449171 -11.855493 285 35186ft 422kts
20-Oct-18 04:13 57.495348 -12.055630 284 35184ft 422kts
20-Oct-18 04:14 57.541468 -12.257405 284 35180ft 422kts
20-Oct-18 04:15 57.587043 -12.458684 284 35153ft 422kts
20-Oct-18 04:16 57.632337 -12.660635 284 35146ft 421kts
20-Oct-18 04:17 57.677272 -12.862934 284 35142ft 422kts
20-Oct-18 04:18 57.721842 -13.065538 283 35137ft 423kts
20-Oct-18 04:19 57.766291 -13.269580 283 35132ft 423kts
20-Oct-18 04:20 57.810420 -13.474160 283 35126ft 423kts
20-Oct-18 04:21 57.854290 -13.679582 282 35121ft 424kts
20-Oct-18 04:22 57.897987 -13.886255 282 35115ft 425kts
20-Oct-18 04:23 57.941254 -14.092981 282 35110ft 425kts
20-Oct-18 04:24 57.984187 -14.300218 282 35104ft 424kts
20-Oct-18 04:25 58.026728 -14.507670 281 34991ft 424kts
20-Oct-18 04:26 58.068854 -14.715242 281 34863ft 423kts
20-Oct-18 04:27 58.110563 -14.922906 280 34849ft 422kts
20-Oct-18 04:28 58.151884 -15.130816 280 34836ft 422kts
20-Oct-18 04:29 58.192933 -15.339551 279 34785ft 422kts
20-Oct-18 04:30 58.233501 -15.548037 279 34767ft 422kts
20-Oct-18 04:31 58.273962 -15.758222 279 34751ft 422kts
20-Oct-18 04:32 58.313859 -15.967727 279 34737ft 422kts
20-Oct-18 04:33 58.353480 -16.178051 278 34721ft 421kts
20-Oct-18 04:34 58.392647 -16.388278 278 34708ft 420kts
20-Oct-18 04:35 58.431294 -16.597993 277 34695ft 418kts
20-Oct-18 04:36 58.469505 -16.807678 277 34681ft 416kts
20-Oct-18 04:37 58.507097 -17.016257 276 34669ft 415kts
20-Oct-18 04:38 58.544375 -17.225447 276 34656ft 413kts
20-Oct-18 04:39 58.581038 -17.433496 275 34645ft 412kts
20-Oct-18 04:40 58.617352 -17.641909 275 34631ft 412kts
20-Oct-18 04:41 58.653330 -17.850772 275 34621ft 412kts
20-Oct-18 04:42 58.689009 -18.060271 274 34610ft 411kts
20-Oct-18 04:43 58.724070 -18.268575 274 34600ft 410kts
20-Oct-18 04:44 58.758795 -18.477292 273 34591ft 408kts
20-Oct-18 04:45 58.793098 -18.685905 273 34581ft 406kts
20-Oct-18 04:46 58.826954 -18.894242 273 34572ft 407kts
20-Oct-18 04:47 58.860376 -19.102370 272 34563ft 405kts
20-Oct-18 04:48 58.893359 -19.310241 272 34554ft 404kts
20-Oct-18 04:49 58.926709 -19.517790 272 34539ft 403kts
20-Oct-18 04:50 58.958690 -19.726514 271 34412ft 403kts
20-Oct-18 04:51 58.990089 -19.934279 271 34363ft 401kts
20-Oct-18 04:52 59.033789 -20.139088 279 34355ft 420kts
20-Oct-18 04:53 59.084877 -20.343613 279 34342ft 420kts
20-Oct-18 04:54 59.134851 -20.548647 278 34335ft 419kts
20-Oct-18 04:55 59.186074 -20.753838 279 34327ft 421kts
20-Oct-18 04:56 59.236444 -20.959140 278 34320ft 420kts
20-Oct-18 04:57 59.286172 -21.165660 278 34304ft 420kts
20-Oct-18 04:58 59.335683 -21.373647 278 34291ft 421kts
20-Oct-18 04:59 59.384787 -21.582011 278 34284ft 421kts
20-Oct-18 05:00 59.433682 -21.791530 278 34279ft 422kts
20-Oct-18 05:01 59.482214 -22.001538 278 34273ft 423kts
20-Oct-18 05:02 59.530737 -22.213593 278 34268ft 424kts
20-Oct-18 05:03 59.578740 -22.425478 278 34263ft 423kts
20-Oct-18 05:04 59.626491 -22.638377 278 34267ft 423kts
20-Oct-18 05:05 59.673865 -22.851738 278 34358ft 425kts
20-Oct-18 05:06 59.721065 -23.066502 278 34352ft 426kts
20-Oct-18 05:07 59.768175 -23.283071 278 34346ft 428kts
20-Oct-18 05:08 59.815047 -23.500804 279 34341ft 431kts
20-Oct-18 05:09 59.861928 -23.720898 279 34275ft 433kts
20-Oct-18 05:10 59.908707 -23.942873 279 34268ft 434kts
20-Oct-18 05:11 59.955091 -24.165368 279 34263ft 434kts
20-Oct-18 05:12 60.001061 -24.388299 278 34263ft 433kts
20-Oct-18 05:13 60.046746 -24.612320 279 34258ft 437kts
20-Oct-18 05:14 60.092297 -24.838169 279 34253ft 438kts
20-Oct-18 05:15 60.137629 -25.065477 279 34249ft 440kts
20-Oct-18 05:16 60.182732 -25.294238 279 34245ft 441kts
20-Oct-18 05:17 60.227443 -25.523636 279 34242ft 441kts
20-Oct-18 05:18 60.271710 -25.753418 279 34242ft 439kts
20-Oct-18 05:19 60.315441 -25.983080 279 34237ft 439kts
20-Oct-18 05:20 60.358897 -26.214022 279 34235ft 440kts
20-Oct-18 05:21 60.402070 -26.446216 279 34232ft 441kts
20-Oct-18 05:22 60.444993 -26.679868 279 34230ft 444kts
20-Oct-18 05:23 60.487558 -26.914424 279 34228ft 445kts
20-Oct-18 05:24 60.530056 -27.151536 279 34227ft 447kts
20-Oct-18 05:25 60.572107 -27.389114 279 34217ft 447kts
20-Oct-18 05:26 60.613776 -27.627543 279 34216ft 447kts
20-Oct-18 05:27 60.655125 -27.867200 279 34215ft 447kts
20-Oct-18 05:28 60.695934 -28.106844 279 34214ft 449kts
20-Oct-18 05:29 60.736548 -28.348446 279 34213ft 451kts
20-Oct-18 05:30 60.776899 -28.591723 279 34212ft 452kts
20-Oct-18 05:31 60.816851 -28.835861 279 34212ft 453kts
20-Oct-18 05:32 60.856619 -29.082216 280 34212ft 454kts
20-Oct-18 05:33 60.889354 -29.287598 280 34211ft 455kts
20-Oct-18 05:34 60.935563 -29.576283 279 34211ft 456kts
20-Oct-18 05:35 60.967212 -29.783770 279 34211ft 456kts
20-Oct-18 05:36 61.007915 -30.032158 286 34379ft 462kts
20-Oct-18 05:37 61.076904 -30.312252 289 34339ft 470kts
20-Oct-18 05:38 61.126056 -30.513429 289 34333ft 470kts
20-Oct-18 05:39 61.185492 -30.754349 290 34329ft 471kts
20-Oct-18 05:40 61.254844 -31.037260 289 34324ft 471kts
20-Oct-18 05:41 61.303480 -31.240348 289 34328ft 471kts
20-Oct-18 05:42 61.361570 -31.485849 289 34324ft 472kts
20-Oct-18 05:43 61.428811 -31.773659 289 34318ft 473kts
20-Oct-18 05:44 61.476479 -31.980051 289 34315ft 474kts
20-Oct-18 05:45 61.533425 -32.229254 289 34310ft 474kts
20-Oct-18 05:46 61.589922 -32.479399 289 34305ft 474kts
20-Oct-18 05:47 61.645951 -32.730408 289 34301ft 474kts
20-Oct-18 05:48 61.701496 -32.982232 289 34295ft 474kts
20-Oct-18 05:49 61.756505 -33.234626 289 34321ft 474kts
20-Oct-18 05:50 61.811229 -33.488759 289 34319ft 475kts
20-Oct-18 05:51 61.865610 -33.744395 289 34317ft 476kts
20-Oct-18 05:52 61.919618 -34.001429 289 34314ft 477kts
20-Oct-18 05:53 61.973106 -34.259178 289 34312ft 477kts
20-Oct-18 05:54 62.025998 -34.517279 288 34310ft 476kts
20-Oct-18 05:55 62.078554 -34.777002 288 34308ft 477kts
20-Oct-18 05:56 62.130698 -35.038014 288 34306ft 477kts
20-Oct-18 05:57 62.182336 -35.299840 288 34304ft 477kts
20-Oct-18 05:58 62.233369 -35.562004 288 34302ft 476kts
20-Oct-18 05:59 62.283853 -35.824770 288 34301ft 475kts
20-Oct-18 06:00 62.333725 -36.087811 288 34300ft 475kts
20-Oct-18 06:01 62.383041 -36.351411 287 34299ft 475kts
20-Oct-18 06:02 62.432122 -36.617318 287 34299ft 476kts
20-Oct-18 06:03 62.480562 -36.883369 287 34299ft 476kts
20-Oct-18 06:04 62.528678 -37.151290 287 34302ft 477kts
20-Oct-18 06:05 62.576160 -37.419400 287 34324ft 476kts
20-Oct-18 06:06 62.623038 -37.687846 287 34325ft 476kts
20-Oct-18 06:07 62.669444 -37.957387 287 34327ft 477kts
20-Oct-18 06:08 62.715448 -38.228467 286 34330ft 477kts
20-Oct-18 06:09 62.760982 -38.500702 286 34332ft 477kts
20-Oct-18 06:10 62.805921 -38.773380 286 34335ft 477kts
20-Oct-18 06:11 62.850524 -39.048046 286 34339ft 478kts
20-Oct-18 06:12 62.894577 -39.323384 286 34355ft 478kts
20-Oct-18 06:13 62.938637 -39.598001 285 34360ft 478kts
20-Oct-18 06:14 62.981087 -39.875855 285 34366ft 478kts
20-Oct-18 06:15 63.006823 -40.159880 271 34373ft 474kts
20-Oct-18 06:16 63.014358 -40.449797 270 34383ft 473kts
20-Oct-18 06:17 63.021864 -40.739099 270 34393ft 474kts
20-Oct-18 06:18 63.031975 -41.028571 271 34403ft 474kts
20-Oct-18 06:19 63.040263 -41.318593 271 34413ft 474kts
20-Oct-18 06:20 63.047571 -41.608496 270 34422ft 473kts
20-Oct-18 06:21 63.054237 -41.898878 270 34433ft 474kts
20-Oct-18 06:22 63.060288 -42.188930 270 34442ft 474kts
20-Oct-18 06:23 63.065750 -42.479379 270 34452ft 475kts
20-Oct-18 06:24 63.070620 -42.770172 269 34460ft 474kts
20-Oct-18 06:25 63.074907 -43.061937 269 34468ft 474kts
20-Oct-18 06:26 63.078579 -43.352542 269 34476ft 475kts
20-Oct-18 06:27 63.081664 -43.644046 269 34486ft 475kts
20-Oct-18 06:28 63.084148 -43.935280 268 34492ft 475kts
20-Oct-18 06:29 63.086035 -44.226824 268 34499ft 475kts
20-Oct-18 06:30 63.087323 -44.518185 268 34505ft 475kts
20-Oct-18 06:31 63.088015 -44.810348 268 34509ft 474kts
20-Oct-18 06:32 63.088106 -45.101391 268 34513ft 474kts
20-Oct-18 06:33 63.087599 -45.392319 267 34518ft 475kts
20-Oct-18 06:34 63.086498 -45.683400 267 34527ft 475kts
20-Oct-18 06:35 63.084798 -45.974512 267 34531ft 474kts
20-Oct-18 06:36 63.082502 -46.265637 267 34534ft 473kts
20-Oct-18 06:37 63.079614 -46.556205 267 34539ft 473kts
20-Oct-18 06:38 63.076130 -46.846843 266 34542ft 474kts
20-Oct-18 06:39 63.072051 -47.137395 266 34546ft 473kts
20-Oct-18 06:40 63.067384 -47.427491 266 34550ft 473kts
20-Oct-18 06:41 63.062135 -47.716977 266 34554ft 473kts
20-Oct-18 06:42 63.056285 -48.006865 265 34558ft 473kts
20-Oct-18 06:43 63.049827 -48.297326 265 34563ft 473kts
20-Oct-18 06:44 63.042820 -48.585897 265 34566ft 473kts
20-Oct-18 06:45 63.035184 -48.875967 265 34571ft 473kts
20-Oct-18 06:46 63.027008 -49.164130 265 34575ft 473kts
20-Oct-18 06:47 63.019190 -49.454304 265 34578ft 473kts
20-Oct-18 06:48 63.009197 -49.743320 264 34582ft 473kts
20-Oct-18 06:49 62.998804 -50.031805 264 34585ft 473kts
20-Oct-18 06:50 62.986937 -50.320051 263 34587ft 472kts
20-Oct-18 06:51 62.974145 -50.607589 263 34589ft 472kts
20-Oct-18 06:52 62.962294 -50.895153 264 34609ft 472kts
20-Oct-18 06:53 62.950432 -51.182791 263 34612ft 472kts
20-Oct-18 06:54 62.937169 -51.468683 263 34612ft 472kts
20-Oct-18 06:55 62.923128 -51.755751 263 34612ft 472kts
20-Oct-18 06:56 62.908530 -52.041672 262 34612ft 472kts
20-Oct-18 06:57 62.893330 -52.327692 262 34614ft 472kts
20-Oct-18 06:58 62.877546 -52.613486 262 34614ft 471kts
20-Oct-18 06:59 62.861250 -52.897853 262 34616ft 471kts
20-Oct-18 07:00 62.844310 -53.183081 261 34617ft 471kts
20-Oct-18 07:01 62.826884 -53.466559 261 34619ft 470kts
20-Oct-18 07:02 62.808873 -53.749924 261 34644ft 470kts
20-Oct-18 07:03 62.790328 -54.032420 261 34645ft 469kts
20-Oct-18 07:04 62.771263 -54.313899 261 34646ft 469kts
20-Oct-18 07:05 62.751629 -54.595105 260 34648ft 469kts
20-Oct-18 07:06 62.731392 -54.876498 260 34649ft 469kts
20-Oct-18 07:07 62.710644 -55.156845 260 34651ft 468kts
20-Oct-18 07:08 62.689382 -55.436220 260 34654ft 468kts
20-Oct-18 07:09 62.667559 -55.715274 260 34656ft 467kts
20-Oct-18 07:10 62.645163 -55.994164 259 34688ft 467kts
20-Oct-18 07:11 62.622224 -56.272506 259 34694ft 467kts
20-Oct-18 07:12 62.598774 -56.549957 259 34701ft 467kts
20-Oct-18 07:13 62.574775 -56.826995 259 35654ft 468kts
20-Oct-18 07:14 62.550086 -57.105209 259 35712ft 468kts
20-Oct-18 07:15 62.525599 -57.381249 259 35716ft 467kts
20-Oct-18 07:16 62.499983 -57.657101 258 35721ft 467kts
20-Oct-18 07:17 62.473298 -57.932077 258 35726ft 467kts
20-Oct-18 07:18 62.454823 -58.209741 263 35730ft 467kts
20-Oct-18 07:19 62.439442 -58.487620 262 35734ft 467kts
20-Oct-18 07:20 62.423028 -58.766235 263 35737ft 467kts
20-Oct-18 07:21 62.408724 -59.044800 263 35741ft 468kts
20-Oct-18 07:22 62.392413 -59.322711 262 35747ft 466kts
20-Oct-18 07:23 62.375358 -59.599005 262 35751ft 466kts
20-Oct-18 07:24 62.357690 -59.875329 262 35754ft 465kts
20-Oct-18 07:25 62.339454 -60.151525 262 35757ft 465kts
20-Oct-18 07:26 62.320697 -60.426979 262 35760ft 465kts
20-Oct-18 07:27 62.301418 -60.701787 261 35764ft 465kts
20-Oct-18 07:28 62.281645 -60.975580 261 35766ft 465kts
20-Oct-18 07:29 62.261292 -61.249558 261 35786ft 464kts
20-Oct-18 07:30 62.240391 -61.523286 261 35797ft 463kts
20-Oct-18 07:31 62.219095 -61.794830 261 35806ft 463kts
20-Oct-18 07:32 62.197215 -62.066665 261 35809ft 462kts
20-Oct-18 07:33 62.174816 -62.337935 260 35811ft 462kts
20-Oct-18 07:34 62.151875 -62.608956 260 35814ft 463kts
20-Oct-18 07:35 62.128425 -62.879332 260 35816ft 463kts
20-Oct-18 07:36 62.104396 -63.149865 260 35819ft 464kts
20-Oct-18 07:37 62.079801 -63.420397 260 35820ft 463kts
20-Oct-18 07:38 62.054853 -63.688638 259 35822ft 462kts
20-Oct-18 07:39 62.029342 -63.956895 259 35824ft 461kts
20-Oct-18 07:40 62.003336 -64.224440 259 35840ft 461kts
20-Oct-18 07:41 61.976828 -64.491398 259 35842ft 460kts
20-Oct-18 07:42 61.950137 -64.754658 258 35854ft 454kts
20-Oct-18 07:43 61.922983 -65.017067 258 35855ft 454kts
20-Oct-18 07:44 61.895418 -65.278202 258 35855ft 454kts
20-Oct-18 07:45 61.867277 -65.539634 258 35855ft 454kts
20-Oct-18 07:46 61.838668 -65.800338 257 35858ft 455kts
20-Oct-18 07:47 61.809567 -66.060576 257 35854ft 455kts
20-Oct-18 07:48 61.779835 -66.321567 257 35853ft 455kts
20-Oct-18 07:49 61.755680 -66.537895 257 35853ft 455kts
20-Oct-18 07:50 61.719433 -66.839327 256 35853ft 453kts
20-Oct-18 07:51 61.691845 -67.098229 261 35853ft 453kts
20-Oct-18 07:52 61.675885 -67.316654 261 35852ft 454kts
20-Oct-18 07:53 61.651851 -67.623197 261 35852ft 455kts
20-Oct-18 07:54 61.635556 -67.841854 262 35852ft 455kts
20-Oct-18 07:55 61.612310 -68.148919 261 35852ft 456kts
20-Oct-18 07:56 61.591069 -68.411267 260 35851ft 455kts
20-Oct-18 07:57 61.572920 -68.629298 260 35840ft 455kts
20-Oct-18 07:58 61.546878 -68.934418 260 35841ft 455kts
20-Oct-18 07:59 61.527878 -69.151791 260 35841ft 455kts
20-Oct-18 08:00 61.504634 -69.412150 259 35842ft 455kts
20-Oct-18 08:01 61.480791 -69.673244 259 35841ft 456kts
20-Oct-18 08:02 61.456455 -69.933873 259 35839ft 456kts
20-Oct-18 08:03 61.431634 -70.193954 259 35836ft 457kts
20-Oct-18 08:04 61.406219 -70.454648 258 35831ft 457kts
20-Oct-18 08:05 61.380419 -70.713783 258 35822ft 457kts
20-Oct-18 08:06 61.354083 -70.972912 258 35813ft 457kts
20-Oct-18 08:07 61.327245 -71.231697 258 35805ft 458kts
20-Oct-18 08:08 61.299766 -71.491438 257 35799ft 458kts
20-Oct-18 08:09 61.271916 -71.749579 257 35796ft 459kts
20-Oct-18 08:10 61.243426 -72.008620 257 35792ft 459kts
20-Oct-18 08:11 61.214518 -72.266520 257 35793ft 460kts
20-Oct-18 08:12 61.184965 -72.525295 257 35795ft 460kts
20-Oct-18 08:13 61.154937 -72.783431 256 35798ft 460kts
20-Oct-18 08:14 61.124417 -73.041091 256 35800ft 461kts
20-Oct-18 08:15 61.093459 -73.297831 256 35802ft 461kts
20-Oct-18 08:16 61.061765 -73.556081 256 35806ft 463kts
20-Oct-18 08:17 61.029693 -73.812913 256 35818ft 463kts
20-Oct-18 08:18 60.997151 -74.069083 255 35821ft 463kts
20-Oct-18 08:19 60.963978 -74.325841 255 35825ft 464kts
20-Oct-18 08:20 60.930248 -74.582610 255 35829ft 464kts
20-Oct-18 08:21 60.896096 -74.838335 255 35833ft 464kts
20-Oct-18 08:22 60.861381 -75.094084 255 35838ft 465kts
20-Oct-18 08:23 60.826180 -75.349283 254 35845ft 465kts
20-Oct-18 08:24 60.790437 -75.604348 254 35852ft 466kts
20-Oct-18 08:25 60.754159 -75.859196 254 35878ft 466kts
20-Oct-18 08:26 60.717377 -76.113611 254 35884ft 467kts
20-Oct-18 08:27 60.680155 -76.367183 254 35889ft 468kts
20-Oct-18 08:28 60.642262 -76.621440 254 35891ft 468kts
20-Oct-18 08:29 60.603953 -76.874672 254 35894ft 469kts
20-Oct-18 08:30 60.564853 -77.129332 253 35897ft 470kts
20-Oct-18 08:31 60.525384 -77.382639 253 35899ft 470kts
20-Oct-18 08:32 60.485479 -77.635072 253 35900ft 471kts
20-Oct-18 08:33 60.444972 -77.887663 253 35899ft 471kts
20-Oct-18 08:34 60.404030 -78.139363 253 35901ft 471kts
20-Oct-18 08:35 60.362477 -78.391268 253 35903ft 471kts
20-Oct-18 08:36 60.320641 -78.641393 253 35903ft 472kts
20-Oct-18 08:37 60.278060 -78.892505 253 35903ft 474kts
20-Oct-18 08:38 60.234896 -79.143605 253 35903ft 475kts
20-Oct-18 08:39 60.191124 -79.395109 253 35903ft 475kts
20-Oct-18 08:40 60.147516 -79.645702 252 35888ft 475kts
20-Oct-18 08:41 60.102367 -79.894930 252 35890ft 475kts
20-Oct-18 08:42 60.046211 -80.134233 242 35889ft 479kts
20-Oct-18 08:43 59.977981 -80.363477 242 35887ft 480kts
20-Oct-18 08:44 59.909992 -80.592423 242 35886ft 480kts
20-Oct-18 08:45 59.843637 -80.823403 242 35885ft 480kts
20-Oct-18 08:46 59.776106 -81.052021 242 35885ft 481kts
20-Oct-18 08:47 59.707670 -81.280391 242 35884ft 482kts
20-Oct-18 08:48 59.638746 -81.507968 242 35885ft 483kts
20-Oct-18 08:49 59.569168 -81.735424 242 35884ft 483kts
20-Oct-18 08:50 59.499093 -81.962270 241 35885ft 484kts
20-Oct-18 08:51 59.428744 -82.187798 241 35885ft 485kts
20-Oct-18 08:52 59.357861 -82.412849 241 35886ft 485kts
20-Oct-18 08:53 59.286353 -82.637716 241 35887ft 485kts
20-Oct-18 08:54 59.214654 -82.861026 241 35888ft 486kts
20-Oct-18 08:55 59.142243 -83.084410 241 35889ft 486kts
20-Oct-18 08:56 59.069589 -83.306437 241 35890ft 487kts
20-Oct-18 08:57 58.996400 -83.527997 241 35896ft 487kts
20-Oct-18 08:58 58.922908 -83.748391 241 35898ft 487kts
20-Oct-18 08:59 58.848905 -83.968255 240 35900ft 487kts
20-Oct-18 09:00 58.774443 -84.187426 241 35922ft 489kts
20-Oct-18 09:01 58.699556 -84.405828 240 35937ft 489kts
20-Oct-18 09:02 58.624036 -84.624052 240 35936ft 490kts
20-Oct-18 09:03 58.548362 -84.840718 240 35935ft 490kts
20-Oct-18 09:04 58.471830 -85.057847 240 35934ft 491kts
20-Oct-18 09:05 58.395210 -85.273253 240 35960ft 492kts
20-Oct-18 09:06 58.318050 -85.488224 240 35994ft 492kts
20-Oct-18 09:07 58.240392 -85.702638 240 35998ft 493kts
20-Oct-18 09:08 58.162170 -85.916681 240 35998ft 493kts
20-Oct-18 09:09 58.083800 -86.129214 240 35999ft 493kts
20-Oct-18 09:10 58.004895 -86.341300 240 36000ft 494kts
20-Oct-18 09:11 57.925426 -86.553020 239 36000ft 495kts
20-Oct-18 09:12 57.845743 -86.763439 239 36001ft 495kts
20-Oct-18 09:13 57.765234 -86.974180 240 36001ft 496kts
20-Oct-18 09:14 57.684639 -87.183306 240 36002ft 497kts
20-Oct-18 09:15 57.603215 -87.392747 239 36004ft 498kts
20-Oct-18 09:16 57.521395 -87.601379 239 36004ft 498kts
20-Oct-18 09:17 57.439201 -87.809153 239 36053ft 500kts
20-Oct-18 09:18 57.356607 -88.016142 239 36052ft 499kts
20-Oct-18 09:19 57.273520 -88.222576 239 36051ft 501kts
20-Oct-18 09:20 57.189917 -88.428531 239 36051ft 501kts
20-Oct-18 09:21 57.105859 -88.633837 239 36051ft 502kts
20-Oct-18 09:22 57.021430 -88.838303 239 36050ft 502kts
20-Oct-18 09:23 56.936433 -89.042405 239 36051ft 504kts
20-Oct-18 09:24 56.850999 -89.245830 239 36052ft 504kts
20-Oct-18 09:25 56.765384 -89.447975 239 36053ft 504kts
20-Oct-18 09:26 56.679057 -89.650106 239 36057ft 506kts
20-Oct-18 09:27 56.592022 -89.852190 239 36058ft 506kts
20-Oct-18 09:28 56.504988 -90.052581 239 36072ft 507kts
20-Oct-18 09:29 56.417121 -90.253243 239 36098ft 508kts
20-Oct-18 09:30 56.329066 -90.452660 239 36199ft 509kts
20-Oct-18 09:31 56.240412 -90.651788 239 36202ft 509kts
20-Oct-18 09:32 56.151641 -90.849543 239 36206ft 508kts
20-Oct-18 09:33 56.062485 -91.046545 239 36208ft 510kts
20-Oct-18 09:34 55.972647 -91.243440 240 36154ft 512kts
20-Oct-18 09:35 55.882006 -91.440485 240 36163ft 514kts
20-Oct-18 09:36 55.791122 -91.636463 240 36171ft 514kts
20-Oct-18 09:37 55.699748 -91.831910 240 36199ft 514kts
20-Oct-18 09:38 55.608125 -92.026314 240 36211ft 515kts
20-Oct-18 09:39 55.515968 -92.220289 240 36217ft 515kts
20-Oct-18 09:40 55.423813 -92.412722 239 36222ft 515kts
20-Oct-18 09:41 55.330854 -92.605290 239 36226ft 515kts
20-Oct-18 09:42 55.237787 -92.796557 239 36802ft 516kts
20-Oct-18 09:43 55.145194 -92.985445 238 38210ft 512kts
20-Oct-18 09:44 55.051299 -93.175404 238 38255ft 512kts
20-Oct-18 09:45 54.957856 -93.362899 238 38261ft 513kts
20-Oct-18 09:46 54.864194 -93.549509 238 38281ft 513kts
20-Oct-18 09:47 54.770096 -93.735628 238 38270ft 513kts
20-Oct-18 09:48 54.675459 -93.921210 238 38283ft 515kts
20-Oct-18 09:49 54.580441 -94.106203 238 38293ft 511kts
20-Oct-18 09:50 54.485581 -94.289416 238 38302ft 513kts
20-Oct-18 09:51 54.390236 -94.472268 238 38303ft 513kts
20-Oct-18 09:52 54.294685 -94.654147 238 38303ft 511kts
20-Oct-18 09:53 54.199376 -94.834127 238 38312ft 512kts
20-Oct-18 09:54 54.103400 -95.014064 238 38311ft 511kts
20-Oct-18 09:55 54.007748 -95.192085 238 38312ft 511kts
20-Oct-18 09:56 53.911208 -95.370440 238 38313ft 512kts
20-Oct-18 09:57 53.814960 -95.546955 238 38312ft 511kts
20-Oct-18 09:58 53.717866 -95.723729 238 38314ft 511kts
20-Oct-18 09:59 53.621323 -95.898226 238 38316ft 509kts
20-Oct-18 10:00 53.523991 -96.072883 237 38321ft 511kts
20-Oct-18 10:01 53.426613 -96.246378 237 38325ft 510kts
20-Oct-18 10:02 53.329027 -96.419005 237 38329ft 509kts
20-Oct-18 10:03 53.247849 -96.561667 237 38332ft 509kts
20-Oct-18 10:04 53.133507 -96.761198 237 38335ft 509kts
20-Oct-18 10:05 53.051939 -96.902539 237 38344ft 508kts
20-Oct-18 10:06 52.937189 -97.099991 237 38346ft 508kts
20-Oct-18 10:07 52.838884 -97.267871 237 38325ft 508kts
20-Oct-18 10:08 52.756854 -97.407073 237 38318ft 506kts
20-Oct-18 10:09 52.641938 -97.600742 237 38312ft 507kts
20-Oct-18 10:10 52.559709 -97.738377 237 38304ft 507kts
20-Oct-18 10:11 52.443941 -97.930833 237 38252ft 507kts
20-Oct-18 10:12 52.363800 -98.063175 237 38232ft 482kts
20-Oct-18 10:13 52.269640 -98.217740 237 38213ft 481kts
20-Oct-18 10:14 52.175044 -98.372032 237 38121ft 481kts
20-Oct-18 10:15 52.080171 -98.525807 236 38093ft 480kts
20-Oct-18 10:16 51.985254 -98.678651 236 38067ft 480kts
20-Oct-18 10:17 51.889783 -98.831431 236 38039ft 482kts
20-Oct-18 10:18 51.794489 -98.982977 236 38017ft 480kts
20-Oct-18 10:19 51.699288 -99.133427 236 37996ft 479kts
20-Oct-18 10:20 51.603808 -99.283388 236 37975ft 477kts
20-Oct-18 10:21 51.508617 -99.431972 236 37958ft 477kts
20-Oct-18 10:22 51.413538 -99.579477 236 37941ft 476kts
20-Oct-18 10:23 51.318153 -99.727123 236 37931ft 476kts
20-Oct-18 10:24 51.222444 -99.873885 235 37927ft 477kts
20-Oct-18 10:25 51.126215 -100.019960 235 37924ft 478kts
20-Oct-18 10:26 51.027095 -100.161567 232 37925ft 480kts
20-Oct-18 10:27 50.926296 -100.300704 232 37952ft 480kts
20-Oct-18 10:28 50.825825 -100.439564 233 38004ft 481kts
20-Oct-18 10:29 50.725089 -100.579636 232 38069ft 481kts
20-Oct-18 10:30 50.624207 -100.718036 232 38134ft 481kts
20-Oct-18 10:31 50.523327 -100.855466 232 38188ft 480kts
20-Oct-18 10:32 50.421901 -100.992804 232 38229ft 480kts
20-Oct-18 10:33 50.321055 -101.128554 232 38256ft 478kts
20-Oct-18 10:34 50.219865 -101.263975 231 38276ft 478kts
20-Oct-18 10:35 50.118585 -101.398737 231 38291ft 477kts
20-Oct-18 10:36 50.017596 -101.532339 231 38302ft 477kts
20-Oct-18 10:37 49.916012 -101.665959 231 38293ft 478kts
20-Oct-18 10:38 49.814522 -101.798696 231 38392ft 477kts
20-Oct-18 10:39 49.713139 -101.930544 230 38391ft 476kts
20-Oct-18 10:40 49.611063 -102.062541 230 38388ft 477kts
20-Oct-18 10:41 49.509266 -102.193443 230 38388ft 477kts
20-Oct-18 10:42 49.407086 -102.324100 230 38386ft 477kts
20-Oct-18 10:43 49.304820 -102.454136 229 38382ft 477kts
20-Oct-18 10:44 49.202772 -102.583175 229 38381ft 476kts
20-Oct-18 10:45 49.100448 -102.711850 229 38382ft 477kts
20-Oct-18 10:46 48.997961 -102.840024 229 38383ft 477kts
20-Oct-18 10:47 48.895008 -102.968071 228 38386ft 476kts
20-Oct-18 10:48 48.792296 -103.095123 228 38390ft 476kts
20-Oct-18 10:49 48.689609 -103.221456 228 38393ft 476kts
20-Oct-18 10:50 48.586769 -103.347300 228 38396ft 475kts
20-Oct-18 10:51 48.483798 -103.473039 228 38399ft 475kts
20-Oct-18 10:52 48.380847 -103.597709 227 38400ft 474kts
20-Oct-18 10:53 48.277788 -103.721433 227 38408ft 475kts
20-Oct-18 10:54 48.191186 -103.864424 240 38406ft 458kts
20-Oct-18 10:55 48.111322 -104.013385 239 38399ft 458kts
20-Oct-18 10:56 48.030916 -104.161365 239 38389ft 458kts
20-Oct-18 10:57 47.951203 -104.309741 239 38381ft 458kts
20-Oct-18 10:58 47.870694 -104.457287 239 38378ft 459kts
20-Oct-18 10:59 47.789747 -104.604535 238 38373ft 460kts
20-Oct-18 11:00 47.708663 -104.751193 238 38369ft 459kts
20-Oct-18 11:01 47.627108 -104.897889 238 38358ft 459kts
20-Oct-18 11:02 47.545744 -105.043454 237 38354ft 458kts
20-Oct-18 11:03 47.464368 -105.188263 237 38352ft 458kts
20-Oct-18 11:04 47.382836 -105.332575 237 38351ft 457kts
20-Oct-18 11:05 47.301249 -105.476223 237 38349ft 458kts
20-Oct-18 11:06 47.219433 -105.619517 237 38327ft 457kts
20-Oct-18 11:07 47.137271 -105.762657 236 38311ft 457kts
20-Oct-18 11:08 47.054946 -105.905334 236 38287ft 458kts
20-Oct-18 11:09 46.972314 -106.047806 236 38285ft 458kts
20-Oct-18 11:10 46.889794 -106.189318 235 38286ft 457kts
20-Oct-18 11:11 46.807039 -106.330509 235 38287ft 458kts
20-Oct-18 11:12 46.723996 -106.471462 235 38246ft 458kts
20-Oct-18 11:13 46.640405 -106.612615 235 38247ft 459kts
20-Oct-18 11:14 46.556911 -106.752878 234 38243ft 458kts
20-Oct-18 11:15 46.473336 -106.892563 234 38243ft 459kts
20-Oct-18 11:16 46.389485 -107.031994 234 38233ft 458kts
20-Oct-18 11:17 46.305537 -107.170879 234 38238ft 458kts
20-Oct-18 11:18 46.221447 -107.309297 233 38244ft 459kts
20-Oct-18 11:19 46.137045 -107.447528 233 38249ft 459kts
20-Oct-18 11:20 46.052313 -107.585603 232 38252ft 459kts
20-Oct-18 11:21 45.967606 -107.722943 232 38255ft 460kts
20-Oct-18 11:22 45.882607 -107.860069 232 38257ft 460kts
20-Oct-18 11:23 45.797191 -107.997184 232 38258ft 460kts
20-Oct-18 11:24 45.711753 -108.133653 232 38272ft 460kts
20-Oct-18 11:25 45.626077 -108.269830 231 38271ft 460kts
20-Oct-18 11:26 45.540425 -108.405296 231 38275ft 461kts
20-Oct-18 11:27 45.454340 -108.540776 231 38284ft 461kts
20-Oct-18 11:28 45.367921 -108.676122 230 38301ft 461kts
20-Oct-18 11:29 45.281491 -108.810819 230 38318ft 462kts
20-Oct-18 11:30 45.194778 -108.945302 229 38333ft 462kts
20-Oct-18 11:31 45.107536 -109.079946 229 38345ft 462kts
20-Oct-18 11:32 45.020534 -109.213576 229 38344ft 463kts
20-Oct-18 11:33 44.932978 -109.347407 229 38369ft 463kts
20-Oct-18 11:34 44.845545 -109.480412 228 38380ft 463kts
20-Oct-18 11:35 44.757786 -109.613276 228 38395ft 463kts
20-Oct-18 11:36 44.670052 -109.746186 228 38420ft 464kts
20-Oct-18 11:37 44.581566 -109.878489 227 38453ft 465kts
20-Oct-18 11:38 44.494558 -110.012280 233 38508ft 465kts
20-Oct-18 11:39 44.422685 -110.163124 236 38525ft 465kts
20-Oct-18 11:40 44.351634 -110.314146 236 38529ft 465kts
20-Oct-18 11:41 44.280692 -110.464738 236 38524ft 465kts
20-Oct-18 11:42 44.209495 -110.615572 236 38512ft 464kts
20-Oct-18 11:43 44.138166 -110.765022 236 38496ft 464kts
20-Oct-18 11:44 44.066540 -110.914186 235 38486ft 464kts
20-Oct-18 11:45 43.994473 -111.063475 235 38480ft 464kts
20-Oct-18 11:46 43.921945 -111.212971 234 38465ft 472kts
20-Oct-18 11:47 43.848368 -111.363808 234 38464ft 471kts
20-Oct-18 11:48 43.774723 -111.514026 234 38458ft 470kts
20-Oct-18 11:49 43.701170 -111.663291 234 38454ft 470kts
20-Oct-18 11:50 43.627459 -111.812121 233 38440ft 470kts
20-Oct-18 11:51 43.553472 -111.960750 233 38431ft 470kts
20-Oct-18 11:52 43.479122 -112.109350 233 38429ft 471kts
20-Oct-18 11:53 43.404469 -112.257818 233 38428ft 472kts
20-Oct-18 11:54 43.329342 -112.406475 232 38425ft 474kts
20-Oct-18 11:55 43.253956 -112.554896 232 38419ft 475kts
20-Oct-18 11:56 43.177961 -112.703759 232 38412ft 476kts
20-Oct-18 11:57 43.101790 -112.852227 231 38410ft 477kts
20-Oct-18 11:58 43.025347 -113.000479 231 38408ft 478kts
20-Oct-18 11:59 42.948414 -113.148942 231 38404ft 478kts
20-Oct-18 12:00 42.871394 -113.296833 231 38394ft 479kts
20-Oct-18 12:01 42.793919 -113.444866 230 38385ft 480kts
20-Oct-18 12:02 42.716210 -113.592618 230 38377ft 481kts
20-Oct-18 12:03 42.638538 -113.740406 230 38373ft 482kts
20-Oct-18 12:04 42.559890 -113.887950 229 38371ft 483kts
20-Oct-18 12:05 42.481649 -114.036307 232 38371ft 485kts
20-Oct-18 12:06 42.408057 -114.190360 232 38370ft 486kts
20-Oct-18 12:07 42.334200 -114.342921 232 38341ft 486kts
20-Oct-18 12:08 42.260435 -114.496349 232 38342ft 486kts
20-Oct-18 12:09 42.186391 -114.648993 232 38341ft 486kts
20-Oct-18 12:10 42.112250 -114.800576 232 38342ft 485kts
20-Oct-18 12:11 42.037796 -114.951966 232 38344ft 485kts
20-Oct-18 12:12 41.962958 -115.103356 231 38338ft 487kts
20-Oct-18 12:13 41.887614 -115.255009 231 38337ft 488kts
20-Oct-18 12:14 41.812016 -115.406404 231 38335ft 488kts
20-Oct-18 12:15 41.749032 -115.531979 231 38336ft 487kts
20-Oct-18 12:16 41.660537 -115.707535 231 38335ft 487kts
20-Oct-18 12:17 41.584581 -115.857413 231 38323ft 487kts
20-Oct-18 12:18 41.521090 -115.982128 231 38319ft 487kts
20-Oct-18 12:19 41.431953 -116.156372 231 38317ft 487kts
20-Oct-18 12:20 41.368180 -116.280427 231 38316ft 487kts
20-Oct-18 12:21 41.291448 -116.429025 231 38314ft 487kts
20-Oct-18 12:22 41.201714 -116.601900 231 38311ft 486kts
20-Oct-18 12:23 41.137680 -116.724672 231 38309ft 485kts
20-Oct-18 12:24 41.060622 -116.871766 231 38306ft 485kts
20-Oct-18 12:25 40.970696 -117.042541 231 38293ft 484kts
20-Oct-18 12:26 40.906207 -117.164430 230 38292ft 485kts
20-Oct-18 12:27 40.828703 -117.310290 230 38281ft 484kts
20-Oct-18 12:28 40.751273 -117.455325 230 38281ft 484kts
20-Oct-18 12:29 40.673470 -117.600383 230 38281ft 483kts
20-Oct-18 12:30 40.595808 -117.744495 230 38281ft 483kts
20-Oct-18 12:31 40.517854 -117.888495 230 38279ft 483kts
20-Oct-18 12:32 40.439617 -118.032348 231 38278ft 482kts
20-Oct-18 12:33 40.361608 -118.175128 230 38275ft 482kts
20-Oct-18 12:34 40.283431 -118.317563 230 38272ft 482kts
20-Oct-18 12:35 40.204915 -118.459967 230 38270ft 482kts
20-Oct-18 12:36 40.126143 -118.602191 230 38269ft 482kts
20-Oct-18 12:37 40.047284 -118.743928 230 38270ft 482kts
20-Oct-18 12:38 39.968181 -118.885456 230 38270ft 482kts
20-Oct-18 12:39 39.889118 -119.026304 230 38270ft 482kts
20-Oct-18 12:40 39.809748 -119.167068 230 38271ft 482kts
20-Oct-18 12:41 39.730162 -119.307593 230 38273ft 482kts
20-Oct-18 12:42 39.650774 -119.447761 230 38275ft 482kts
20-Oct-18 12:43 39.570765 -119.587335 230 38278ft 482kts
20-Oct-18 12:44 39.518881 -119.746632 255 38280ft 492kts
20-Oct-18 12:45 39.496090 -119.921770 257 38283ft 494kts
20-Oct-18 12:46 39.472856 -120.097083 258 38296ft 493kts
20-Oct-18 12:47 39.450174 -120.272097 257 38299ft 493kts
20-Oct-18 12:48 39.426608 -120.447060 257 38287ft 493kts
20-Oct-18 12:49 39.402755 -120.621652 257 38271ft 493kts
20-Oct-18 12:50 39.379036 -120.796104 257 38257ft 493kts
20-Oct-18 12:51 39.354467 -120.970004 257 38222ft 492kts
20-Oct-18 12:52 39.309287 -121.133859 233 38142ft 486kts
20-Oct-18 12:53 39.224667 -121.268262 226 38081ft 482kts
20-Oct-18 12:54 39.137414 -121.400207 227 38043ft 482kts
20-Oct-18 12:55 39.051274 -121.532102 227 38052ft 483kts
20-Oct-18 12:56 38.970777 -121.654449 227 37750ft 470kts
20-Oct-18 12:57 38.887189 -121.780802 227 36516ft 459kts
20-Oct-18 12:58 38.805394 -121.903935 226 35126ft 453kts
20-Oct-18 12:59 38.723021 -122.027458 226 33190ft 458kts
20-Oct-18 13:00 38.640072 -122.151825 227 31367ft 455kts
20-Oct-18 13:01 38.561567 -122.268608 226 29910ft 426kts
20-Oct-18 13:02 38.489599 -122.375045 226 27598ft 425kts
20-Oct-18 13:03 38.413554 -122.488150 227 25392ft 415kts
20-Oct-18 13:04 38.339532 -122.598015 227 23283ft 403kts
20-Oct-18 13:05 38.267448 -122.704339 227 21259ft 391kts
20-Oct-18 13:06 38.174305 -122.749122 173 19213ft 367kts
20-Oct-18 13:07 38.076129 -122.724709 165 17310ft 354kts
20-Oct-18 13:08 37.981064 -122.696800 166 15414ft 344kts
20-Oct-18 13:09 37.891264 -122.662346 148 13643ft 330kts
20-Oct-18 13:10 37.842317 -122.613776 138 12888ft 309kts
20-Oct-18 13:11 37.780217 -122.546805 140 11440ft 299kts
20-Oct-18 13:12 37.723483 -122.486748 139 10978ft 290kts
20-Oct-18 13:13 37.661573 -122.420926 140 10981ft 291kts
20-Oct-18 13:14 37.598232 -122.358743 149 10980ft 282kts
20-Oct-18 13:15 37.529593 -122.314259 153 10444ft 273kts
20-Oct-18 13:16 37.462206 -122.271893 154 9057ft 265kts
20-Oct-18 13:17 37.398958 -122.231286 144 8078ft 248kts
20-Oct-18 13:18 37.367188 -122.155493 113 6866ft 245kts
20-Oct-18 13:19 37.376339 -122.080660 33 5992ft 245kts
20-Oct-18 13:20 37.437636 -122.046014 23 5670ft 226kts
20-Oct-18 13:21 37.493776 -122.036023 318 4184ft 214kts
20-Oct-18 13:22 37.520870 -122.096675 294 3988ft 194kts
20-Oct-18 13:23 37.542875 -122.156648 295 3380ft 175kts
20-Oct-18 13:24 37.562467 -122.209520 295 2527ft 160kts
20-Oct-18 13:25 37.580816 -122.259047 296 1676ft 151kts
20-Oct-18 13:26 37.597157 -122.305834 287 903ft 138kts
20-Oct-18 13:27 37.610786 -122.350528 297 206ft 136kts
20-Oct-18 13:28 37.623667 -122.381286 297 26ft 26kts
20-Oct-18 13:29 37.623133 -122.385441 208 26ft 11kts
20-Oct-18 13:30 37.620860 -122.384878 117 26ft 19kts
20-Oct-18 13:31 37.618376 -122.379765 149 26ft 15kts
20-Oct-18 13:32 37.614916 -122.380773 207 26ft 11kts
20-Oct-18 13:33 37.612354 -122.382471 207 26ft 9kts
20-Oct-18 13:34 37.609794 -122.384744 285 26ft 8kts
20-Oct-18 13:35 37.610945 -122.387499 297 26ft 8kts
20-Oct-18 13:36 37.610105 -122.389797 279 26ft 10kts
20-Oct-18 13:37 37.611914 -122.391787 4 26ft 8kts
20-Oct-18 13:38 37.613537 -122.390558 98 26ft 6kts
20-Oct-18 13:39 37.613254 -122.389805 118 26ft 0kts
20-Oct-18 13:40 37.613253 -122.389801 118 26ft 0kts
20-Oct-18 13:41 37.613253 -122.389801 118 26ft 0kts
20-Oct-18 13:42 37.613263 -122.389825 118 26ft 0kts

Navigation Log

Ident Type
Flight plan parsing failed, navigation log unavailable